sensor_id;sensor_type;location;lat;lon;timestamp;P1;durP1;ratioP1;P2;durP2;ratioP2
21494;SDS011;10909;53.590;10.054;2023-02-13T00:01:13;7.30;;;6.47;;
21494;SDS011;10909;53.590;10.054;2023-02-13T00:03:39;7.97;;;6.40;;
21494;SDS011;10909;53.590;10.054;2023-02-13T00:06:05;7.57;;;6.47;;
21494;SDS011;10909;53.590;10.054;2023-02-13T00:08:31;7.87;;;6.43;;
21494;SDS011;10909;53.590;10.054;2023-02-13T00:10:57;9.37;;;7.50;;
21494;SDS011;10909;53.590;10.054;2023-02-13T00:13:23;7.43;;;6.70;;
21494;SDS011;10909;53.590;10.054;2023-02-13T00:16:00;7.60;;;6.80;;
21494;SDS011;10909;53.590;10.054;2023-02-13T00:18:32;8.67;;;6.60;;
21494;SDS011;10909;53.590;10.054;2023-02-13T00:21:00;9.33;;;7.43;;
21494;SDS011;10909;53.590;10.054;2023-02-13T00:23:31;8.33;;;7.47;;
21494;SDS011;10909;53.590;10.054;2023-02-13T00:25:58;9.13;;;7.50;;
21494;SDS011;10909;53.590;10.054;2023-02-13T00:28:25;8.40;;;7.23;;
21494;SDS011;10909;53.590;10.054;2023-02-13T00:30:51;9.27;;;7.47;;
21494;SDS011;10909;53.590;10.054;2023-02-13T00:33:17;9.27;;;8.07;;
21494;SDS011;10909;53.590;10.054;2023-02-13T00:35:43;10.63;;;8.27;;
21494;SDS011;10909;53.590;10.054;2023-02-13T00:38:09;9.13;;;8.00;;
21494;SDS011;10909;53.590;10.054;2023-02-13T00:40:35;10.07;;;8.43;;
21494;SDS011;10909;53.590;10.054;2023-02-13T00:43:01;10.87;;;8.27;;
21494;SDS011;10909;53.590;10.054;2023-02-13T00:45:27;10.73;;;8.90;;
21494;SDS011;10909;53.590;10.054;2023-02-13T00:47:53;10.07;;;8.57;;
21494;SDS011;10909;53.590;10.054;2023-02-13T00:50:18;10.37;;;7.93;;
21494;SDS011;10909;53.590;10.054;2023-02-13T00:52:44;9.93;;;8.60;;
21494;SDS011;10909;53.590;10.054;2023-02-13T00:55:10;10.53;;;8.97;;
21494;SDS011;10909;53.590;10.054;2023-02-13T00:57:35;9.47;;;7.93;;
21494;SDS011;10909;53.590;10.054;2023-02-13T01:00:01;10.33;;;8.37;;
21494;SDS011;10909;53.590;10.054;2023-02-13T01:02:27;11.53;;;8.37;;
21494;SDS011;10909;53.590;10.054;2023-02-13T01:04:53;11.33;;;7.53;;
21494;SDS011;10909;53.590;10.054;2023-02-13T01:07:18;8.47;;;7.57;;
21494;SDS011;10909;53.590;10.054;2023-02-13T01:09:44;9.20;;;7.97;;
21494;SDS011;10909;53.590;10.054;2023-02-13T01:12:10;11.03;;;8.53;;
21494;SDS011;10909;53.590;10.054;2023-02-13T01:14:35;9.87;;;7.87;;
21494;SDS011;10909;53.590;10.054;2023-02-13T01:17:01;9.33;;;7.93;;
21494;SDS011;10909;53.590;10.054;2023-02-13T01:19:27;9.33;;;8.30;;
21494;SDS011;10909;53.590;10.054;2023-02-13T01:21:52;10.57;;;8.00;;
21494;SDS011;10909;53.590;10.054;2023-02-13T01:24:18;11.73;;;8.93;;
21494;SDS011;10909;53.590;10.054;2023-02-13T01:26:44;9.33;;;8.10;;
21494;SDS011;10909;53.590;10.054;2023-02-13T01:29:13;10.30;;;8.80;;
21494;SDS011;10909;53.590;10.054;2023-02-13T01:31:38;11.70;;;8.90;;
21494;SDS011;10909;53.590;10.054;2023-02-13T01:34:04;10.83;;;8.27;;
21494;SDS011;10909;53.590;10.054;2023-02-13T01:36:30;12.70;;;8.87;;
21494;SDS011;10909;53.590;10.054;2023-02-13T01:38:56;12.50;;;8.37;;
21494;SDS011;10909;53.590;10.054;2023-02-13T01:41:23;9.03;;;8.13;;
21494;SDS011;10909;53.590;10.054;2023-02-13T01:43:52;10.20;;;7.63;;
21494;SDS011;10909;53.590;10.054;2023-02-13T01:46:33;9.90;;;7.90;;
21494;SDS011;10909;53.590;10.054;2023-02-13T01:49:02;10.10;;;7.83;;
21494;SDS011;10909;53.590;10.054;2023-02-13T01:51:43;8.70;;;7.47;;
21494;SDS011;10909;53.590;10.054;2023-02-13T01:54:18;9.77;;;7.70;;
21494;SDS011;10909;53.590;10.054;2023-02-13T01:56:56;9.17;;;7.63;;
21494;SDS011;10909;53.590;10.054;2023-02-13T01:59:41;11.40;;;8.07;;
21494;SDS011;10909;53.590;10.054;2023-02-13T02:02:12;9.77;;;8.37;;
21494;SDS011;10909;53.590;10.054;2023-02-13T02:04:40;10.97;;;8.87;;
21494;SDS011;10909;53.590;10.054;2023-02-13T02:07:09;9.83;;;8.27;;
21494;SDS011;10909;53.590;10.054;2023-02-13T02:09:38;10.73;;;8.00;;
21494;SDS011;10909;53.590;10.054;2023-02-13T02:12:20;10.47;;;8.10;;
21494;SDS011;10909;53.590;10.054;2023-02-13T02:14:52;10.20;;;8.37;;
21494;SDS011;10909;53.590;10.054;2023-02-13T02:17:20;9.27;;;7.77;;
21494;SDS011;10909;53.590;10.054;2023-02-13T02:33:35;9.57;;;7.63;;
21494;SDS011;10909;53.590;10.054;2023-02-13T02:49:54;8.03;;;6.70;;
21494;SDS011;10909;53.590;10.054;2023-02-13T02:52:42;8.93;;;6.60;;
21494;SDS011;10909;53.590;10.054;2023-02-13T02:55:29;8.97;;;7.33;;
21494;SDS011;10909;53.590;10.054;2023-02-13T02:58:03;9.03;;;7.17;;
21494;SDS011;10909;53.590;10.054;2023-02-13T03:01:10;8.73;;;6.27;;
21494;SDS011;10909;53.590;10.054;2023-02-13T03:03:57;6.93;;;6.23;;
21494;SDS011;10909;53.590;10.054;2023-02-13T03:06:48;7.20;;;6.50;;
21494;SDS011;10909;53.590;10.054;2023-02-13T03:09:22;8.57;;;7.03;;
21494;SDS011;10909;53.590;10.054;2023-02-13T03:12:12;9.03;;;7.00;;
21494;SDS011;10909;53.590;10.054;2023-02-13T03:15:03;7.27;;;6.10;;
21494;SDS011;10909;53.590;10.054;2023-02-13T03:17:28;8.33;;;7.00;;
21494;SDS011;10909;53.590;10.054;2023-02-13T03:23:25;7.63;;;6.23;;
21494;SDS011;10909;53.590;10.054;2023-02-13T03:29:08;8.40;;;6.27;;
21494;SDS011;10909;53.590;10.054;2023-02-13T03:32:05;7.77;;;6.37;;
21494;SDS011;10909;53.590;10.054;2023-02-13T03:35:03;8.37;;;6.33;;
21494;SDS011;10909;53.590;10.054;2023-02-13T03:38:19;6.47;;;5.37;;
21494;SDS011;10909;53.590;10.054;2023-02-13T03:41:22;6.80;;;5.77;;
21494;SDS011;10909;53.590;10.054;2023-02-13T03:46:46;6.70;;;6.00;;
21494;SDS011;10909;53.590;10.054;2023-02-13T03:49:18;7.73;;;6.07;;
21494;SDS011;10909;53.590;10.054;2023-02-13T03:54:55;7.63;;;6.10;;
21494;SDS011;10909;53.590;10.054;2023-02-13T03:57:44;7.07;;;5.73;;
21494;SDS011;10909;53.590;10.054;2023-02-13T04:00:33;7.07;;;5.87;;
21494;SDS011;10909;53.590;10.054;2023-02-13T04:05:49;6.47;;;5.77;;
21494;SDS011;10909;53.590;10.054;2023-02-13T04:08:20;7.03;;;5.97;;
21494;SDS011;10909;53.590;10.054;2023-02-13T04:11:29;7.90;;;5.93;;
21494;SDS011;10909;53.590;10.054;2023-02-13T04:13:38;6.07;;;5.47;;
21494;SDS011;10909;53.590;10.054;2023-02-13T04:16:30;7.70;;;5.43;;
21494;SDS011;10909;53.590;10.054;2023-02-13T04:18:59;6.37;;;5.17;;
21494;SDS011;10909;53.590;10.054;2023-02-13T04:21:27;5.47;;;4.90;;
21494;SDS011;10909;53.590;10.054;2023-02-13T04:23:57;6.43;;;5.63;;
21494;SDS011;10909;53.590;10.054;2023-02-13T04:26:23;8.03;;;5.53;;
21494;SDS011;10909;53.590;10.054;2023-02-13T04:28:50;7.93;;;6.40;;
21494;SDS011;10909;53.590;10.054;2023-02-13T04:31:16;6.43;;;5.47;;
21494;SDS011;10909;53.590;10.054;2023-02-13T04:33:42;6.63;;;5.67;;
21494;SDS011;10909;53.590;10.054;2023-02-13T04:36:07;8.03;;;5.77;;
21494;SDS011;10909;53.590;10.054;2023-02-13T04:38:33;7.03;;;5.77;;
21494;SDS011;10909;53.590;10.054;2023-02-13T04:40:59;7.47;;;5.50;;
21494;SDS011;10909;53.590;10.054;2023-02-13T04:43:24;6.67;;;5.67;;
21494;SDS011;10909;53.590;10.054;2023-02-13T04:45:50;6.33;;;5.73;;
21494;SDS011;10909;53.590;10.054;2023-02-13T04:48:16;7.57;;;5.80;;
21494;SDS011;10909;53.590;10.054;2023-02-13T04:50:42;6.47;;;5.63;;
21494;SDS011;10909;53.590;10.054;2023-02-13T04:53:08;8.17;;;5.97;;
21494;SDS011;10909;53.590;10.054;2023-02-13T04:55:33;8.07;;;6.07;;
21494;SDS011;10909;53.590;10.054;2023-02-13T04:57:59;7.67;;;6.70;;
21494;SDS011;10909;53.590;10.054;2023-02-13T05:00:27;6.97;;;5.77;;
21494;SDS011;10909;53.590;10.054;2023-02-13T05:02:53;6.30;;;5.57;;
21494;SDS011;10909;53.590;10.054;2023-02-13T05:05:19;7.57;;;5.70;;
21494;SDS011;10909;53.590;10.054;2023-02-13T05:07:45;7.20;;;5.70;;
21494;SDS011;10909;53.590;10.054;2023-02-13T05:10:11;6.63;;;5.80;;
21494;SDS011;10909;53.590;10.054;2023-02-13T05:12:37;7.70;;;5.97;;
21494;SDS011;10909;53.590;10.054;2023-02-13T05:15:03;6.00;;;5.40;;
21494;SDS011;10909;53.590;10.054;2023-02-13T05:17:29;6.80;;;5.90;;
21494;SDS011;10909;53.590;10.054;2023-02-13T05:19:55;6.90;;;6.10;;
21494;SDS011;10909;53.590;10.054;2023-02-13T05:22:21;6.77;;;5.80;;
21494;SDS011;10909;53.590;10.054;2023-02-13T05:25:05;9.00;;;6.23;;
21494;SDS011;10909;53.590;10.054;2023-02-13T05:27:31;6.87;;;6.00;;
21494;SDS011;10909;53.590;10.054;2023-02-13T05:29:57;6.63;;;5.70;;
21494;SDS011;10909;53.590;10.054;2023-02-13T05:32:22;5.83;;;5.23;;
21494;SDS011;10909;53.590;10.054;2023-02-13T05:34:48;6.80;;;5.77;;
21494;SDS011;10909;53.590;10.054;2023-02-13T05:37:14;7.83;;;6.90;;
21494;SDS011;10909;53.590;10.054;2023-02-13T05:39:39;7.60;;;6.50;;
21494;SDS011;10909;53.590;10.054;2023-02-13T05:42:05;7.10;;;5.90;;
21494;SDS011;10909;53.590;10.054;2023-02-13T05:44:31;8.23;;;6.17;;
21494;SDS011;10909;53.590;10.054;2023-02-13T05:46:57;7.63;;;6.40;;
21494;SDS011;10909;53.590;10.054;2023-02-13T05:49:23;7.67;;;6.73;;
21494;SDS011;10909;53.590;10.054;2023-02-13T05:51:48;7.10;;;5.77;;
21494;SDS011;10909;53.590;10.054;2023-02-13T05:54:17;7.10;;;6.23;;
21494;SDS011;10909;53.590;10.054;2023-02-13T05:56:43;7.90;;;6.67;;
21494;SDS011;10909;53.590;10.054;2023-02-13T05:59:09;6.33;;;5.73;;
21494;SDS011;10909;53.590;10.054;2023-02-13T06:01:34;7.30;;;5.77;;
21494;SDS011;10909;53.590;10.054;2023-02-13T06:04:01;7.83;;;6.37;;
21494;SDS011;10909;53.590;10.054;2023-02-13T06:06:27;6.43;;;5.73;;
21494;SDS011;10909;53.590;10.054;2023-02-13T06:08:53;7.77;;;6.13;;
21494;SDS011;10909;53.590;10.054;2023-02-13T06:11:19;6.47;;;5.13;;
21494;SDS011;10909;53.590;10.054;2023-02-13T06:13:48;7.27;;;5.77;;
21494;SDS011;10909;53.590;10.054;2023-02-13T06:16:23;7.43;;;5.57;;
21494;SDS011;10909;53.590;10.054;2023-02-13T06:18:58;7.13;;;5.63;;
21494;SDS011;10909;53.590;10.054;2023-02-13T06:21:28;8.20;;;5.97;;
21494;SDS011;10909;53.590;10.054;2023-02-13T06:23:53;8.37;;;5.43;;
21494;SDS011;10909;53.590;10.054;2023-02-13T06:26:19;5.90;;;5.23;;
21494;SDS011;10909;53.590;10.054;2023-02-13T06:28:45;6.97;;;5.83;;
21494;SDS011;10909;53.590;10.054;2023-02-13T06:31:10;5.83;;;5.20;;
21494;SDS011;10909;53.590;10.054;2023-02-13T06:33:36;6.43;;;5.47;;
21494;SDS011;10909;53.590;10.054;2023-02-13T06:36:02;6.20;;;5.33;;
21494;SDS011;10909;53.590;10.054;2023-02-13T06:38:31;6.87;;;6.07;;
21494;SDS011;10909;53.590;10.054;2023-02-13T06:41:02;6.73;;;5.70;;
21494;SDS011;10909;53.590;10.054;2023-02-13T06:43:34;7.17;;;5.93;;
21494;SDS011;10909;53.590;10.054;2023-02-13T06:46:05;6.93;;;5.83;;
21494;SDS011;10909;53.590;10.054;2023-02-13T06:48:41;7.80;;;6.00;;
21494;SDS011;10909;53.590;10.054;2023-02-13T06:51:17;9.47;;;6.17;;
21494;SDS011;10909;53.590;10.054;2023-02-13T06:53:45;7.60;;;6.17;;
21494;SDS011;10909;53.590;10.054;2023-02-13T06:56:26;7.00;;;6.07;;
21494;SDS011;10909;53.590;10.054;2023-02-13T06:59:02;8.67;;;6.43;;
21494;SDS011;10909;53.590;10.054;2023-02-13T07:01:27;6.27;;;5.43;;
21494;SDS011;10909;53.590;10.054;2023-02-13T07:03:53;7.67;;;6.10;;
21494;SDS011;10909;53.590;10.054;2023-02-13T07:06:19;7.63;;;6.73;;
21494;SDS011;10909;53.590;10.054;2023-02-13T07:08:46;8.67;;;7.13;;
21494;SDS011;10909;53.590;10.054;2023-02-13T07:11:18;8.37;;;6.13;;
21494;SDS011;10909;53.590;10.054;2023-02-13T07:13:45;7.00;;;6.30;;
21494;SDS011;10909;53.590;10.054;2023-02-13T07:16:10;7.33;;;6.23;;
21494;SDS011;10909;53.590;10.054;2023-02-13T07:18:37;7.40;;;6.43;;
21494;SDS011;10909;53.590;10.054;2023-02-13T07:21:02;7.73;;;6.60;;
21494;SDS011;10909;53.590;10.054;2023-02-13T07:23:28;7.33;;;6.03;;
21494;SDS011;10909;53.590;10.054;2023-02-13T07:25:54;7.53;;;6.47;;
21494;SDS011;10909;53.590;10.054;2023-02-13T07:28:22;8.50;;;6.93;;
21494;SDS011;10909;53.590;10.054;2023-02-13T07:30:49;8.27;;;6.03;;
21494;SDS011;10909;53.590;10.054;2023-02-13T07:33:15;7.37;;;6.30;;
21494;SDS011;10909;53.590;10.054;2023-02-13T07:35:45;8.37;;;7.00;;
21494;SDS011;10909;53.590;10.054;2023-02-13T07:38:15;7.10;;;6.40;;
21494;SDS011;10909;53.590;10.054;2023-02-13T07:40:43;7.40;;;6.47;;
21494;SDS011;10909;53.590;10.054;2023-02-13T07:43:09;8.70;;;7.07;;
21494;SDS011;10909;53.590;10.054;2023-02-13T07:45:37;8.27;;;6.47;;
21494;SDS011;10909;53.590;10.054;2023-02-13T07:48:05;9.63;;;7.07;;
21494;SDS011;10909;53.590;10.054;2023-02-13T07:50:31;7.60;;;6.50;;
21494;SDS011;10909;53.590;10.054;2023-02-13T07:52:58;8.50;;;7.13;;
21494;SDS011;10909;53.590;10.054;2023-02-13T07:55:25;8.97;;;6.80;;
21494;SDS011;10909;53.590;10.054;2023-02-13T07:57:55;8.83;;;6.77;;
21494;SDS011;10909;53.590;10.054;2023-02-13T08:00:25;8.13;;;7.17;;
21494;SDS011;10909;53.590;10.054;2023-02-13T08:02:52;8.73;;;7.00;;
21494;SDS011;10909;53.590;10.054;2023-02-13T08:05:18;8.60;;;7.20;;
21494;SDS011;10909;53.590;10.054;2023-02-13T08:07:43;8.93;;;7.50;;
21494;SDS011;10909;53.590;10.054;2023-02-13T08:10:12;8.67;;;7.17;;
21494;SDS011;10909;53.590;10.054;2023-02-13T08:12:57;8.43;;;6.93;;
21494;SDS011;10909;53.590;10.054;2023-02-13T08:15:28;8.23;;;6.80;;
21494;SDS011;10909;53.590;10.054;2023-02-13T08:17:53;8.73;;;6.80;;
21494;SDS011;10909;53.590;10.054;2023-02-13T08:20:19;9.03;;;6.90;;
21494;SDS011;10909;53.590;10.054;2023-02-13T08:22:45;9.00;;;6.77;;
21494;SDS011;10909;53.590;10.054;2023-02-13T08:25:11;9.20;;;7.27;;
21494;SDS011;10909;53.590;10.054;2023-02-13T08:27:37;7.53;;;6.63;;
21494;SDS011;10909;53.590;10.054;2023-02-13T08:30:05;7.73;;;6.53;;
21494;SDS011;10909;53.590;10.054;2023-02-13T08:32:39;6.83;;;6.13;;
21494;SDS011;10909;53.590;10.054;2023-02-13T08:35:04;7.97;;;6.37;;
21494;SDS011;10909;53.590;10.054;2023-02-13T08:37:30;7.53;;;6.67;;
21494;SDS011;10909;53.590;10.054;2023-02-13T08:39:56;6.63;;;6.00;;
21494;SDS011;10909;53.590;10.054;2023-02-13T08:42:21;8.47;;;6.30;;
21494;SDS011;10909;53.590;10.054;2023-02-13T08:44:47;8.63;;;6.60;;
21494;SDS011;10909;53.590;10.054;2023-02-13T08:47:13;8.30;;;6.07;;
21494;SDS011;10909;53.590;10.054;2023-02-13T08:49:38;6.90;;;5.67;;
21494;SDS011;10909;53.590;10.054;2023-02-13T08:52:12;7.73;;;6.40;;
21494;SDS011;10909;53.590;10.054;2023-02-13T08:54:37;7.73;;;6.13;;
21494;SDS011;10909;53.590;10.054;2023-02-13T08:57:03;8.73;;;5.60;;
21494;SDS011;10909;53.590;10.054;2023-02-13T08:59:30;7.33;;;5.87;;
21494;SDS011;10909;53.590;10.054;2023-02-13T09:01:56;7.53;;;6.73;;
21494;SDS011;10909;53.590;10.054;2023-02-13T09:04:22;7.27;;;6.07;;
21494;SDS011;10909;53.590;10.054;2023-02-13T09:06:47;8.33;;;6.23;;
21494;SDS011;10909;53.590;10.054;2023-02-13T09:09:13;7.40;;;6.27;;
21494;SDS011;10909;53.590;10.054;2023-02-13T09:11:40;8.03;;;6.50;;
21494;SDS011;10909;53.590;10.054;2023-02-13T09:14:06;7.37;;;6.47;;
21494;SDS011;10909;53.590;10.054;2023-02-13T09:16:33;9.43;;;6.67;;
21494;SDS011;10909;53.590;10.054;2023-02-13T09:18:59;8.97;;;6.90;;
21494;SDS011;10909;53.590;10.054;2023-02-13T09:21:26;8.67;;;6.87;;
21494;SDS011;10909;53.590;10.054;2023-02-13T09:23:52;8.67;;;7.17;;
21494;SDS011;10909;53.590;10.054;2023-02-13T09:26:19;7.47;;;6.63;;
21494;SDS011;10909;53.590;10.054;2023-02-13T09:28:45;7.70;;;6.67;;
21494;SDS011;10909;53.590;10.054;2023-02-13T09:31:14;8.33;;;6.90;;
21494;SDS011;10909;53.590;10.054;2023-02-13T09:33:42;10.47;;;7.23;;
21494;SDS011;10909;53.590;10.054;2023-02-13T09:36:10;11.67;;;6.77;;
21494;SDS011;10909;53.590;10.054;2023-02-13T09:38:38;10.57;;;7.50;;
21494;SDS011;10909;53.590;10.054;2023-02-13T09:41:15;8.20;;;6.70;;
21494;SDS011;10909;53.590;10.054;2023-02-13T09:43:48;6.93;;;6.00;;
21494;SDS011;10909;53.590;10.054;2023-02-13T09:48:59;7.10;;;6.10;;
21494;SDS011;10909;53.590;10.054;2023-02-13T09:51:36;8.23;;;7.03;;
21494;SDS011;10909;53.590;10.054;2023-02-13T09:54:03;9.13;;;7.17;;
21494;SDS011;10909;53.590;10.054;2023-02-13T09:56:39;9.80;;;7.13;;
21494;SDS011;10909;53.590;10.054;2023-02-13T10:01:59;8.47;;;6.83;;
21494;SDS011;10909;53.590;10.054;2023-02-13T10:07:32;8.23;;;7.03;;
21494;SDS011;10909;53.590;10.054;2023-02-13T10:10:04;9.50;;;7.27;;
21494;SDS011;10909;53.590;10.054;2023-02-13T10:18:15;9.23;;;7.23;;
21494;SDS011;10909;53.590;10.054;2023-02-13T10:20:50;7.77;;;6.30;;
21494;SDS011;10909;53.590;10.054;2023-02-13T10:23:23;8.30;;;6.53;;
21494;SDS011;10909;53.590;10.054;2023-02-13T10:26:06;7.10;;;5.87;;
21494;SDS011;10909;53.590;10.054;2023-02-13T10:28:56;6.60;;;5.90;;
21494;SDS011;10909;53.590;10.054;2023-02-13T10:31:47;9.10;;;6.77;;
21494;SDS011;10909;53.590;10.054;2023-02-13T10:34:16;8.53;;;6.80;;
21494;SDS011;10909;53.590;10.054;2023-02-13T10:36:47;9.60;;;7.70;;
21494;SDS011;10909;53.590;10.054;2023-02-13T10:39:23;9.00;;;6.93;;
21494;SDS011;10909;53.590;10.054;2023-02-13T10:55:50;8.80;;;7.20;;
21494;SDS011;10909;53.590;10.054;2023-02-13T11:00:59;9.47;;;6.37;;
21494;SDS011;10909;53.590;10.054;2023-02-13T11:03:48;8.87;;;6.80;;
21494;SDS011;10909;53.590;10.054;2023-02-13T11:06:35;9.33;;;7.47;;
21494;SDS011;10909;53.590;10.054;2023-02-13T11:09:06;8.33;;;7.10;;
21494;SDS011;10909;53.590;10.054;2023-02-13T11:11:41;8.37;;;6.47;;
21494;SDS011;10909;53.590;10.054;2023-02-13T11:14:17;8.17;;;7.27;;
21494;SDS011;10909;53.590;10.054;2023-02-13T11:16:53;8.10;;;6.67;;
21494;SDS011;10909;53.590;10.054;2023-02-13T11:19:21;10.43;;;8.07;;
21494;SDS011;10909;53.590;10.054;2023-02-13T11:21:53;10.07;;;7.67;;
21494;SDS011;10909;53.590;10.054;2023-02-13T11:24:26;9.30;;;7.27;;
21494;SDS011;10909;53.590;10.054;2023-02-13T11:27:02;8.90;;;7.40;;
21494;SDS011;10909;53.590;10.054;2023-02-13T11:29:37;8.37;;;7.47;;
21494;SDS011;10909;53.590;10.054;2023-02-13T11:32:21;8.20;;;7.13;;
21494;SDS011;10909;53.590;10.054;2023-02-13T11:34:49;10.67;;;7.93;;
21494;SDS011;10909;53.590;10.054;2023-02-13T11:37:16;9.37;;;7.93;;
21494;SDS011;10909;53.590;10.054;2023-02-13T11:39:50;9.10;;;7.70;;
21494;SDS011;10909;53.590;10.054;2023-02-13T11:42:29;13.85;;;12.20;;
21494;SDS011;10909;53.590;10.054;2023-02-13T11:45:02;13.30;;;10.07;;
21494;SDS011;10909;53.590;10.054;2023-02-13T11:47:36;11.90;;;8.33;;
21494;SDS011;10909;53.590;10.054;2023-02-13T11:50:28;11.70;;;9.07;;
21494;SDS011;10909;53.590;10.054;2023-02-13T11:53:08;10.57;;;7.93;;
21494;SDS011;10909;53.590;10.054;2023-02-13T11:58:48;11.60;;;8.00;;
21494;SDS011;10909;53.590;10.054;2023-02-13T12:01:28;10.77;;;8.70;;
21494;SDS011;10909;53.590;10.054;2023-02-13T12:06:31;9.80;;;7.37;;
21494;SDS011;10909;53.590;10.054;2023-02-13T12:09:12;10.37;;;7.50;;
21494;SDS011;10909;53.590;10.054;2023-02-13T12:11:45;10.43;;;8.17;;
21494;SDS011;10909;53.590;10.054;2023-02-13T12:14:22;10.47;;;8.47;;
21494;SDS011;10909;53.590;10.054;2023-02-13T12:16:58;11.03;;;8.03;;
21494;SDS011;10909;53.590;10.054;2023-02-13T12:19:44;10.13;;;8.10;;
21494;SDS011;10909;53.590;10.054;2023-02-13T12:22:28;15.25;;;13.02;;
21494;SDS011;10909;53.590;10.054;2023-02-13T12:44:10;13.07;;;10.03;;
21494;SDS011;10909;53.590;10.054;2023-02-13T12:47:18;11.97;;;9.27;;
21494;SDS011;10909;53.590;10.054;2023-02-13T12:50:33;13.63;;;9.13;;
21494;SDS011;10909;53.590;10.054;2023-02-13T13:01:40;14.33;;;10.50;;
21494;SDS011;10909;53.590;10.054;2023-02-13T13:16:35;11.43;;;8.80;;
21494;SDS011;10909;53.590;10.054;2023-02-13T13:18:58;13.53;;;9.30;;
21494;SDS011;10909;53.590;10.054;2023-02-13T13:27:10;12.23;;;9.97;;
21494;SDS011;10909;53.590;10.054;2023-02-13T13:30:12;12.53;;;10.10;;
21494;SDS011;10909;53.590;10.054;2023-02-13T13:32:53;14.23;;;10.40;;
21494;SDS011;10909;53.590;10.054;2023-02-13T13:35:32;12.83;;;9.97;;
21494;SDS011;10909;53.590;10.054;2023-02-13T13:49:44;13.40;;;9.63;;
21494;SDS011;10909;53.590;10.054;2023-02-13T13:52:24;12.17;;;9.97;;
21494;SDS011;10909;53.590;10.054;2023-02-13T13:54:54;12.70;;;10.10;;
21494;SDS011;10909;53.590;10.054;2023-02-13T13:57:26;13.20;;;10.37;;
21494;SDS011;10909;53.590;10.054;2023-02-13T14:00:29;13.53;;;10.10;;
21494;SDS011;10909;53.590;10.054;2023-02-13T14:16:58;12.77;;;10.33;;
21494;SDS011;10909;53.590;10.054;2023-02-13T14:27:23;13.90;;;9.93;;
21494;SDS011;10909;53.590;10.054;2023-02-13T14:29:54;12.47;;;9.73;;
21494;SDS011;10909;53.590;10.054;2023-02-13T14:34:53;13.07;;;9.97;;
21494;SDS011;10909;53.590;10.054;2023-02-13T14:37:26;13.80;;;10.07;;
21494;SDS011;10909;53.590;10.054;2023-02-13T14:40:09;14.30;;;9.47;;
21494;SDS011;10909;53.590;10.054;2023-02-13T14:43:46;12.43;;;9.87;;
21494;SDS011;10909;53.590;10.054;2023-02-13T14:51:29;15.63;;;10.80;;
21494;SDS011;10909;53.590;10.054;2023-02-13T14:54:03;13.73;;;9.50;;
21494;SDS011;10909;53.590;10.054;2023-02-13T14:56:43;13.10;;;9.93;;
21494;SDS011;10909;53.590;10.054;2023-02-13T14:59:14;12.33;;;9.57;;
21494;SDS011;10909;53.590;10.054;2023-02-13T15:01:44;15.33;;;10.70;;
21494;SDS011;10909;53.590;10.054;2023-02-13T15:04:15;15.43;;;11.10;;
21494;SDS011;10909;53.590;10.054;2023-02-13T15:06:55;14.43;;;10.03;;
21494;SDS011;10909;53.590;10.054;2023-02-13T15:12:01;13.93;;;9.70;;
21494;SDS011;10909;53.590;10.054;2023-02-13T15:14:29;15.07;;;10.20;;
21494;SDS011;10909;53.590;10.054;2023-02-13T15:17:02;12.03;;;9.83;;
21494;SDS011;10909;53.590;10.054;2023-02-13T15:19:41;14.03;;;10.33;;
21494;SDS011;10909;53.590;10.054;2023-02-13T15:22:16;14.40;;;10.50;;
21494;SDS011;10909;53.590;10.054;2023-02-13T15:24:56;12.97;;;9.87;;
21494;SDS011;10909;53.590;10.054;2023-02-13T15:27:26;14.60;;;10.60;;
21494;SDS011;10909;53.590;10.054;2023-02-13T15:32:40;16.10;;;10.70;;
21494;SDS011;10909;53.590;10.054;2023-02-13T15:35:16;14.03;;;10.23;;
21494;SDS011;10909;53.590;10.054;2023-02-13T15:37:46;13.27;;;10.17;;
21494;SDS011;10909;53.590;10.054;2023-02-13T15:40:35;15.77;;;11.17;;
21494;SDS011;10909;53.590;10.054;2023-02-13T15:43:04;15.73;;;11.73;;
21494;SDS011;10909;53.590;10.054;2023-02-13T15:45:51;15.47;;;10.77;;
21494;SDS011;10909;53.590;10.054;2023-02-13T15:48:17;16.80;;;12.27;;
21494;SDS011;10909;53.590;10.054;2023-02-13T15:50:44;15.90;;;11.67;;
21494;SDS011;10909;53.590;10.054;2023-02-13T15:53:12;16.07;;;11.30;;
21494;SDS011;10909;53.590;10.054;2023-02-13T15:55:40;15.70;;;11.43;;
21494;SDS011;10909;53.590;10.054;2023-02-13T15:58:08;15.83;;;11.93;;
21494;SDS011;10909;53.590;10.054;2023-02-13T16:00:38;15.17;;;11.23;;
21494;SDS011;10909;53.590;10.054;2023-02-13T16:03:07;12.97;;;10.00;;
21494;SDS011;10909;53.590;10.054;2023-02-13T16:05:41;12.67;;;9.90;;
21494;SDS011;10909;53.590;10.054;2023-02-13T16:16:24;13.97;;;10.23;;
21494;SDS011;10909;53.590;10.054;2023-02-13T16:18:51;15.33;;;10.47;;
21494;SDS011;10909;53.590;10.054;2023-02-13T16:21:21;13.63;;;10.10;;
21494;SDS011;10909;53.590;10.054;2023-02-13T16:23:49;13.10;;;10.20;;
21494;SDS011;10909;53.590;10.054;2023-02-13T16:26:22;15.03;;;10.73;;
21494;SDS011;10909;53.590;10.054;2023-02-13T16:28:48;14.53;;;10.37;;
21494;SDS011;10909;53.590;10.054;2023-02-13T16:31:14;14.00;;;10.10;;
21494;SDS011;10909;53.590;10.054;2023-02-13T16:33:42;14.37;;;9.73;;
21494;SDS011;10909;53.590;10.054;2023-02-13T16:38:38;12.30;;;9.27;;
21494;SDS011;10909;53.590;10.054;2023-02-13T16:43:53;11.97;;;9.03;;
21494;SDS011;10909;53.590;10.054;2023-02-13T16:46:35;11.93;;;9.10;;
21494;SDS011;10909;53.590;10.054;2023-02-13T16:49:05;13.93;;;9.07;;
21494;SDS011;10909;53.590;10.054;2023-02-13T16:56:38;12.07;;;9.07;;
21494;SDS011;10909;53.590;10.054;2023-02-13T17:01:45;11.17;;;8.87;;
21494;SDS011;10909;53.590;10.054;2023-02-13T17:06:45;21.50;;;14.63;;
21494;SDS011;10909;53.590;10.054;2023-02-13T17:09:11;22.73;;;15.53;;
21494;SDS011;10909;53.590;10.054;2023-02-13T17:11:37;27.80;;;17.70;;
21494;SDS011;10909;53.590;10.054;2023-02-13T17:14:03;48.27;;;26.83;;
21494;SDS011;10909;53.590;10.054;2023-02-13T17:16:29;45.50;;;25.43;;
21494;SDS011;10909;53.590;10.054;2023-02-13T17:18:54;48.30;;;26.73;;
21494;SDS011;10909;53.590;10.054;2023-02-13T17:21:20;48.83;;;27.10;;
21494;SDS011;10909;53.590;10.054;2023-02-13T17:23:46;52.80;;;28.40;;
21494;SDS011;10909;53.590;10.054;2023-02-13T17:26:12;56.07;;;29.40;;
21494;SDS011;10909;53.590;10.054;2023-02-13T17:28:39;55.00;;;29.67;;
21494;SDS011;10909;53.590;10.054;2023-02-13T17:31:05;48.40;;;27.17;;
21494;SDS011;10909;53.590;10.054;2023-02-13T17:33:35;33.43;;;20.87;;
21494;SDS011;10909;53.590;10.054;2023-02-13T17:36:02;28.13;;;18.10;;
21494;SDS011;10909;53.590;10.054;2023-02-13T17:38:28;23.37;;;14.33;;
21494;SDS011;10909;53.590;10.054;2023-02-13T17:40:54;21.40;;;13.67;;
21494;SDS011;10909;53.590;10.054;2023-02-13T17:43:20;21.50;;;12.60;;
21494;SDS011;10909;53.590;10.054;2023-02-13T17:45:46;17.70;;;11.67;;
21494;SDS011;10909;53.590;10.054;2023-02-13T17:48:13;14.13;;;9.90;;
21494;SDS011;10909;53.590;10.054;2023-02-13T17:50:39;14.07;;;10.17;;
21494;SDS011;10909;53.590;10.054;2023-02-13T17:53:06;14.83;;;10.70;;
21494;SDS011;10909;53.590;10.054;2023-02-13T17:55:38;15.67;;;10.60;;
21494;SDS011;10909;53.590;10.054;2023-02-13T17:58:04;15.63;;;10.03;;
21494;SDS011;10909;53.590;10.054;2023-02-13T18:00:31;12.17;;;9.33;;
21494;SDS011;10909;53.590;10.054;2023-02-13T18:02:58;15.17;;;9.83;;
21494;SDS011;10909;53.590;10.054;2023-02-13T18:05:25;15.17;;;10.43;;
21494;SDS011;10909;53.590;10.054;2023-02-13T18:07:52;15.00;;;9.83;;